Time;durP1;ratioP1;P1;durP2;ratioP2;P2;SDS_P1;SDS_P2;PMS_P1;PMS_P2;Temp;Humidity;BMP_temperature;BMP_pressure;BME280_temperature;BME280_humidity;BME280_pressure;Samples;Min_cycle;Max_cycle;Signal;HPM_P1;HPM_P2
2021/07/01 00:01:14;;;;;;;2.85;0.80;;;;;;;;;;5088092;28;20477;-58
2021/07/01 00:03:41;;;;;;;2.70;0.70;;;;;;;;;;5087318;28;20043;-57
2021/07/01 00:06:08;;;;;;;4.15;0.80;;;;;;;;;;5090885;28;20040;-58
2021/07/01 00:08:35;;;;;;;1.38;0.77;;;;;;;;;;5087447;28;20032;-58
2021/07/01 00:11:02;;;;;;;2.80;0.70;;;;;;;;;;5099689;28;20426;-58
2021/07/01 00:13:28;;;;;;;2.60;0.73;;;;;;;;;;5084160;28;20068;-58
2021/07/01 00:15:55;;;;;;;4.32;0.82;;;;;;;;;;5081207;28;20094;-58
2021/07/01 00:18:22;;;;;;;3.40;0.75;;;;;;;;;;5091148;28;20036;-58
2021/07/01 00:20:49;;;;;;;1.67;0.90;;;;;;;;;;5078002;28;20044;-58
2021/07/01 00:23:16;;;;;;;2.10;0.80;;;;;;;;;;5092914;28;20037;-58
2021/07/01 00:25:43;;;;;;;1.73;1.13;;;;;;;;;;5093641;28;20040;-58
2021/07/01 00:28:10;;;;;;;2.22;0.88;;;;;;;;;;5091869;28;20115;-58
2021/07/01 00:30:37;;;;;;;3.75;1.00;;;;;;;;;;5093010;28;20119;-58
2021/07/01 00:33:04;;;;;;;3.33;1.15;;;;;;;;;;5091336;28;20044;-62
2021/07/01 00:35:30;;;;;;;2.60;0.80;;;;;;;;;;5085515;28;20086;-58
2021/07/01 00:37:57;;;;;;;2.47;1.17;;;;;;;;;;5100897;28;20039;-58
2021/07/01 00:40:24;;;;;;;2.17;0.70;;;;;;;;;;5101291;28;20090;-58
2021/07/01 00:42:50;;;;;;;4.82;0.90;;;;;;;;;;5078627;28;20067;-58
2021/07/01 00:45:17;;;;;;;3.97;1.10;;;;;;;;;;5090999;28;20036;-58
2021/07/01 00:47:44;;;;;;;2.97;0.70;;;;;;;;;;5089923;28;20047;-58
2021/07/01 00:50:11;;;;;;;1.73;0.88;;;;;;;;;;5101912;28;20047;-58
2021/07/01 00:52:39;;;;;;;3.58;0.80;;;;;;;;;;5094763;28;20036;-58
2021/07/01 00:55:06;;;;;;;3.20;0.80;;;;;;;;;;5092282;28;20044;-58
2021/07/01 00:57:33;;;;;;;1.67;0.80;;;;;;;;;;5090850;28;20089;-58
2021/07/01 01:00:04;;;;;;;3.60;1.00;;;;;;;;;;5085339;28;20051;-58
2021/07/01 01:02:31;;;;;;;2.25;0.80;;;;;;;;;;5077839;28;20039;-58
2021/07/01 01:04:58;;;;;;;2.92;1.27;;;;;;;;;;5090628;28;20036;-58
2021/07/01 01:07:25;;;;;;;3.33;0.90;;;;;;;;;;5092191;28;20044;-58
2021/07/01 01:09:52;;;;;;;3.80;0.82;;;;;;;;;;5074717;28;20077;-58
2021/07/01 01:12:18;;;;;;;1.73;0.80;;;;;;;;;;5090252;28;20438;-58
2021/07/01 01:14:45;;;;;;;8.48;1.20;;;;;;;;;;5092194;28;20043;-58
2021/07/01 01:17:12;;;;;;;1.00;0.95;;;;;;;;;;5091368;28;20040;-58
2021/07/01 01:19:39;;;;;;;5.68;1.17;;;;;;;;;;5087540;28;20513;-58
2021/07/01 01:22:05;;;;;;;2.85;1.20;;;;;;;;;;5088888;28;20082;-58
2021/07/01 01:24:33;;;;;;;2.90;0.80;;;;;;;;;;5090779;28;20042;-58
2021/07/01 01:27:00;;;;;;;2.20;0.85;;;;;;;;;;5091931;28;20106;-58
2021/07/01 01:29:26;;;;;;;2.70;0.80;;;;;;;;;;5089900;28;20131;-58
2021/07/01 01:31:53;;;;;;;0.80;0.80;;;;;;;;;;5091507;28;20373;-58
2021/07/01 01:34:19;;;;;;;3.35;0.80;;;;;;;;;;5085866;28;20044;-58
2021/07/01 01:36:46;;;;;;;2.67;1.17;;;;;;;;;;5088836;28;20040;-58
2021/07/01 01:39:13;;;;;;;3.05;0.90;;;;;;;;;;5092264;28;20039;-58
2021/07/01 01:41:40;;;;;;;3.08;0.90;;;;;;;;;;5090404;28;20076;-58
2021/07/01 01:44:06;;;;;;;3.85;0.80;;;;;;;;;;5089073;28;20077;-58
2021/07/01 01:46:33;;;;;;;2.40;1.02;;;;;;;;;;5091946;28;20028;-58
2021/07/01 01:49:00;;;;;;;5.45;0.90;;;;;;;;;;5088314;28;20032;-58
2021/07/01 01:51:27;;;;;;;1.33;0.80;;;;;;;;;;5091285;28;20417;-58
2021/07/01 01:53:55;;;;;;;1.13;0.80;;;;;;;;;;5089014;28;21474;-58
2021/07/01 01:56:21;;;;;;;1.67;1.00;;;;;;;;;;5089807;28;20067;-59
2021/07/01 01:58:52;;;;;;;1.33;1.00;;;;;;;;;;5092199;28;20048;-58
2021/07/01 02:01:18;;;;;;;2.80;1.10;;;;;;;;;;5091532;28;20059;-58
2021/07/01 02:03:45;;;;;;;4.78;0.85;;;;;;;;;;5085518;28;20048;-58
2021/07/01 02:06:12;;;;;;;3.28;1.05;;;;;;;;;;5085612;28;20033;-58
2021/07/01 02:08:39;;;;;;;4.13;0.90;;;;;;;;;;5077707;28;20040;-58
2021/07/01 02:11:05;;;;;;;2.92;0.80;;;;;;;;;;5090290;28;20074;-58
2021/07/01 02:13:32;;;;;;;2.20;0.70;;;;;;;;;;5088468;28;20052;-58
2021/07/01 02:15:59;;;;;;;3.92;1.00;;;;;;;;;;5087034;28;20051;-58
2021/07/01 02:18:26;;;;;;;4.07;0.80;;;;;;;;;;5093112;28;20039;-58
2021/07/01 02:20:53;;;;;;;6.55;1.88;;;;;;;;;;5086868;28;20028;-58
2021/07/01 02:23:19;;;;;;;4.28;0.90;;;;;;;;;;5090324;28;20537;-58
2021/07/01 02:25:46;;;;;;;3.22;0.90;;;;;;;;;;5088002;28;20124;-58
2021/07/01 02:28:13;;;;;;;2.25;1.10;;;;;;;;;;5090163;28;20028;-58
2021/07/01 02:30:39;;;;;;;3.63;1.00;;;;;;;;;;5083836;28;20041;-58
2021/07/01 02:33:06;;;;;;;3.75;1.00;;;;;;;;;;5077655;28;20121;-58
2021/07/01 02:35:33;;;;;;;2.28;0.90;;;;;;;;;;5089141;28;20101;-59
2021/07/01 02:38:00;;;;;;;6.00;1.38;;;;;;;;;;5089935;28;20093;-58
2021/07/01 02:40:27;;;;;;;2.45;1.65;;;;;;;;;;5089975;28;20476;-58
2021/07/01 02:42:53;;;;;;;3.88;1.27;;;;;;;;;;5083805;28;20106;-58
2021/07/01 02:45:21;;;;;;;5.10;1.60;;;;;;;;;;5080700;28;20063;-58
2021/07/01 02:47:47;;;;;;;2.17;1.00;;;;;;;;;;5090304;28;20036;-59
2021/07/01 02:50:14;;;;;;;3.53;1.10;;;;;;;;;;5089972;28;20056;-59
2021/07/01 02:52:41;;;;;;;3.00;1.60;;;;;;;;;;5090347;28;20089;-58
2021/07/01 02:55:08;;;;;;;9.60;2.30;;;;;;;;;;5081484;28;20075;-59
2021/07/01 02:57:36;;;;;;;2.17;0.90;;;;;;;;;;5078585;28;20130;-59
2021/07/01 03:00:05;;;;;;;4.78;1.10;;;;;;;;;;5091357;28;20040;-59
2021/07/01 03:02:32;;;;;;;3.25;1.15;;;;;;;;;;5089565;28;20035;-58
2021/07/01 03:04:58;;;;;;;1.15;1.15;;;;;;;;;;5088853;28;20055;-58
2021/07/01 03:07:25;;;;;;;4.60;0.80;;;;;;;;;;5089344;28;20127;-58
2021/07/01 03:09:52;;;;;;;0.70;0.60;;;;;;;;;;5089057;28;20043;-59
2021/07/01 03:12:19;;;;;;;4.78;1.15;;;;;;;;;;5073670;28;20588;-58
2021/07/01 03:14:46;;;;;;;3.53;1.88;;;;;;;;;;5085227;28;20506;-59
2021/07/01 03:17:12;;;;;;;5.75;1.02;;;;;;;;;;5079310;28;20127;-58
2021/07/01 03:19:39;;;;;;;3.08;0.90;;;;;;;;;;5092390;28;20056;-58
2021/07/01 03:22:06;;;;;;;5.72;0.90;;;;;;;;;;5089304;28;20579;-59
2021/07/01 03:24:33;;;;;;;1.33;0.85;;;;;;;;;;5090656;28;20128;-59
2021/07/01 03:27:00;;;;;;;3.63;0.90;;;;;;;;;;5088377;28;20533;-59
2021/07/01 03:29:27;;;;;;;2.35;0.80;;;;;;;;;;5088445;28;20434;-59
2021/07/01 03:31:53;;;;;;;3.25;1.85;;;;;;;;;;5080660;28;20706;-59
2021/07/01 03:34:21;;;;;;;3.15;0.90;;;;;;;;;;5092912;28;20147;-59
2021/07/01 03:36:47;;;;;;;5.53;1.00;;;;;;;;;;5089044;28;20098;-59
2021/07/01 03:39:15;;;;;;;2.53;1.13;;;;;;;;;;5087672;28;20047;-59
2021/07/01 03:41:42;;;;;;;3.05;1.30;;;;;;;;;;5098834;28;20093;-59
2021/07/01 03:44:09;;;;;;;1.98;1.10;;;;;;;;;;5077848;28;20055;-59
2021/07/01 03:46:41;;;;;;;1.67;1.20;;;;;;;;;;5086117;28;20453;-59
2021/07/01 03:49:08;;;;;;;2.65;0.90;;;;;;;;;;5080728;28;20036;-59
2021/07/01 03:51:36;;;;;;;3.17;0.90;;;;;;;;;;5090953;28;20121;-59
2021/07/01 03:54:04;;;;;;;2.75;0.80;;;;;;;;;;5092596;28;20089;-59
2021/07/01 03:56:41;;;;;;;4.38;1.27;;;;;;;;;;5094817;28;20039;-59
2021/07/01 03:59:09;;;;;;;2.08;0.90;;;;;;;;;;5091295;28;20039;-59
2021/07/01 04:01:36;;;;;;;9.30;1.42;;;;;;;;;;5091697;28;20040;-59
2021/07/01 04:04:03;;;;;;;2.50;0.90;;;;;;;;;;5093058;28;21033;-59
2021/07/01 04:06:29;;;;;;;2.78;1.45;;;;;;;;;;5092374;28;20071;-59
2021/07/01 04:08:56;;;;;;;4.93;1.13;;;;;;;;;;5093034;28;20059;-59
2021/07/01 04:11:23;;;;;;;2.78;1.27;;;;;;;;;;5091186;28;20430;-59
2021/07/01 04:13:49;;;;;;;2.47;0.80;;;;;;;;;;5090930;28;20078;-59
2021/07/01 04:16:16;;;;;;;1.38;0.90;;;;;;;;;;5105757;28;20047;-59
2021/07/01 04:18:43;;;;;;;5.15;1.20;;;;;;;;;;5092542;28;20043;-59
2021/07/01 04:21:10;;;;;;;2.65;0.90;;;;;;;;;;5092139;28;20040;-59
2021/07/01 04:23:37;;;;;;;5.05;1.60;;;;;;;;;;5092523;28;20052;-58
2021/07/01 04:26:03;;;;;;;3.58;1.10;;;;;;;;;;5090390;28;20093;-59
2021/07/01 04:28:30;;;;;;;2.28;1.30;;;;;;;;;;5094368;28;20082;-59
2021/07/01 04:30:59;;;;;;;7.40;0.90;;;;;;;;;;5091896;28;20093;-59
2021/07/01 04:33:26;;;;;;;6.00;1.17;;;;;;;;;;5072983;28;20048;-59
2021/07/01 04:35:53;;;;;;;4.25;1.55;;;;;;;;;;5088092;28;20127;-58
2021/07/01 04:38:19;;;;;;;2.75;0.80;;;;;;;;;;5091095;28;20055;-59
2021/07/01 04:40:46;;;;;;;3.92;1.25;;;;;;;;;;5097073;28;20488;-59
2021/07/01 04:43:13;;;;;;;3.65;1.48;;;;;;;;;;5090892;28;20044;-59
2021/07/01 04:45:40;;;;;;;3.40;0.90;;;;;;;;;;5091722;28;20089;-60
2021/07/01 04:48:07;;;;;;;1.77;0.90;;;;;;;;;;5084478;28;20389;-59
2021/07/01 04:50:34;;;;;;;2.63;0.88;;;;;;;;;;5089085;28;20089;-58
2021/07/01 04:53:01;;;;;;;1.83;1.00;;;;;;;;;;5092602;28;20124;-59
2021/07/01 04:55:27;;;;;;;1.17;1.10;;;;;;;;;;5090526;28;20469;-59
2021/07/01 04:57:54;;;;;;;4.20;0.93;;;;;;;;;;5096583;28;20032;-59
2021/07/01 05:00:21;;;;;;;4.65;1.48;;;;;;;;;;5083583;28;20496;-59
2021/07/01 05:02:47;;;;;;;6.20;1.00;;;;;;;;;;5087293;28;20055;-59
2021/07/01 05:05:14;;;;;;;4.57;1.20;;;;;;;;;;5084655;28;20036;-59
2021/07/01 05:07:44;;;;;;;7.97;1.63;;;;;;;;;;5091905;28;20528;-59
2021/07/01 05:10:12;;;;;;;3.97;1.23;;;;;;;;;;5090705;28;20040;-58
2021/07/01 05:12:39;;;;;;;6.50;1.45;;;;;;;;;;5092921;28;20052;-59
2021/07/01 05:15:06;;;;;;;3.70;1.10;;;;;;;;;;5090246;28;20054;-59
2021/07/01 05:17:34;;;;;;;3.35;1.10;;;;;;;;;;5072752;28;20101;-59
2021/07/01 05:20:01;;;;;;;3.10;1.20;;;;;;;;;;5088937;28;20721;-59
2021/07/01 05:22:28;;;;;;;4.22;0.95;;;;;;;;;;5090732;28;20550;-59
2021/07/01 05:24:54;;;;;;;6.70;0.90;;;;;;;;;;5092021;28;20044;-61
2021/07/01 05:27:21;;;;;;;4.47;0.90;;;;;;;;;;5090508;28;20040;-61
2021/07/01 05:29:48;;;;;;;7.70;1.30;;;;;;;;;;5073598;28;20040;-61
2021/07/01 05:32:29;;;;;;;3.80;0.90;;;;;;;;;;5091483;28;20051;-60
2021/07/01 05:34:56;;;;;;;1.95;0.90;;;;;;;;;;5091373;28;20079;-60
2021/07/01 05:37:22;;;;;;;4.82;1.15;;;;;;;;;;5092438;28;20044;-61
2021/07/01 05:39:49;;;;;;;1.98;0.90;;;;;;;;;;5090252;28;20044;-61
2021/07/01 05:42:16;;;;;;;2.58;0.80;;;;;;;;;;5072656;28;20079;-61
2021/07/01 05:44:44;;;;;;;9.00;1.20;;;;;;;;;;5091934;28;20071;-61
2021/07/01 05:47:10;;;;;;;5.68;1.65;;;;;;;;;;5089729;28;20043;-60
2021/07/01 05:49:38;;;;;;;4.22;1.55;;;;;;;;;;5102807;28;20043;-60
2021/07/01 05:52:06;;;;;;;1.13;0.90;;;;;;;;;;5088665;28;20116;-60
2021/07/01 05:54:37;;;;;;;5.25;1.25;;;;;;;;;;5087889;28;20426;-60
2021/07/01 05:57:04;;;;;;;7.22;1.65;;;;;;;;;;5091315;28;20081;-60
2021/07/01 05:59:32;;;;;;;10.00;1.10;;;;;;;;;;5089525;28;20040;-60
2021/07/01 06:01:59;;;;;;;4.00;0.90;;;;;;;;;;5072274;28;20453;-60
2021/07/01 06:04:25;;;;;;;5.85;1.10;;;;;;;;;;5091134;28;20036;-61
2021/07/01 06:06:53;;;;;;;4.18;0.90;;;;;;;;;;5080728;28;20085;-60
2021/07/01 06:09:22;;;;;;;3.75;0.90;;;;;;;;;;5091212;28;20067;-60
2021/07/01 06:11:56;;;;;;;3.92;0.90;;;;;;;;;;5089656;28;20055;-60
2021/07/01 06:14:23;;;;;;;4.13;1.00;;;;;;;;;;5073333;28;20701;-60
2021/07/01 06:16:51;;;;;;;3.80;1.27;;;;;;;;;;5092460;28;20414;-61
2021/07/01 06:19:19;;;;;;;9.05;1.33;;;;;;;;;;5089411;28;20436;-60
2021/07/01 06:21:46;;;;;;;2.85;1.20;;;;;;;;;;5083402;28;20032;-61
2021/07/01 06:24:13;;;;;;;2.20;1.10;;;;;;;;;;5087624;28;20040;-60
2021/07/01 06:26:42;;;;;;;5.03;0.90;;;;;;;;;;5074645;28;20044;-60
2021/07/01 06:29:10;;;;;;;3.33;0.90;;;;;;;;;;5092377;28;20082;-61
2021/07/01 06:31:37;;;;;;;2.55;1.10;;;;;;;;;;5091450;28;20039;-61
2021/07/01 06:34:04;;;;;;;2.85;0.93;;;;;;;;;;5076837;28;20051;-61
2021/07/01 06:36:34;;;;;;;3.72;0.90;;;;;;;;;;5089702;28;20036;-61
2021/07/01 06:39:02;;;;;;;2.67;0.80;;;;;;;;;;5088930;28;20105;-61
2021/07/01 06:41:31;;;;;;;3.58;0.75;;;;;;;;;;5091567;28;20044;-61
2021/07/01 06:43:58;;;;;;;1.85;1.05;;;;;;;;;;5089021;28;20040;-60
2021/07/01 06:46:30;;;;;;;3.13;0.70;;;;;;;;;;5088796;28;20384;-61
2021/07/01 06:48:57;;;;;;;2.40;1.08;;;;;;;;;;5091835;28;20449;-60
2021/07/01 06:51:24;;;;;;;1.67;0.65;;;;;;;;;;5088451;28;20028;-61
2021/07/01 06:53:53;;;;;;;1.30;0.70;;;;;;;;;;5080458;28;20075;-61
2021/07/01 06:56:21;;;;;;;1.10;0.60;;;;;;;;;;5086020;28;20548;-60
2021/07/01 06:58:49;;;;;;;5.15;0.82;;;;;;;;;;5105452;28;20032;-61
2021/07/01 07:01:18;;;;;;;3.05;0.60;;;;;;;;;;5082321;28;20062;-61
2021/07/01 07:03:45;;;;;;;1.13;0.70;;;;;;;;;;5080630;28;20024;-61
2021/07/01 07:06:11;;;;;;;1.13;0.60;;;;;;;;;;5090359;28;20483;-61
2021/07/01 07:08:39;;;;;;;4.78;0.60;;;;;;;;;;5090616;28;20036;-61
2021/07/01 07:11:06;;;;;;;1.00;0.60;;;;;;;;;;5090066;28;20036;-61
2021/07/01 07:13:33;;;;;;;1.95;0.60;;;;;;;;;;5090504;28;20059;-61
2021/07/01 07:16:03;;;;;;;0.60;0.60;;;;;;;;;;5089223;28;20032;-60
2021/07/01 07:18:31;;;;;;;1.80;0.60;;;;;;;;;;5090429;28;20147;-60
2021/07/01 07:21:01;;;;;;;0.70;0.65;;;;;;;;;;5088239;28;20040;-61
2021/07/01 07:23:31;;;;;;;1.67;0.50;;;;;;;;;;5077688;28;20044;-60
2021/07/01 07:25:59;;;;;;;1.45;0.57;;;;;;;;;;5090834;28;20040;-61
2021/07/01 07:28:32;;;;;;;0.60;0.60;;;;;;;;;;5091525;28;20111;-61
2021/07/01 07:30:59;;;;;;;0.50;0.50;;;;;;;;;;5092486;28;20059;-61
2021/07/01 07:33:27;;;;;;;0.50;0.50;;;;;;;;;;5094296;28;20063;-61
2021/07/01 07:35:54;;;;;;;2.83;0.50;;;;;;;;;;5092667;28;20464;-61
2021/07/01 07:38:21;;;;;;;0.50;0.50;;;;;;;;;;5077304;28;20089;-61
2021/07/01 07:40:52;;;;;;;3.22;0.50;;;;;;;;;;5093608;28;20123;-61
2021/07/01 07:43:20;;;;;;;0.50;0.50;;;;;;;;;;5093556;28;20032;-60
2021/07/01 07:45:48;;;;;;;0.73;0.55;;;;;;;;;;5094691;28;20064;-60
2021/07/01 07:48:15;;;;;;;1.85;0.50;;;;;;;;;;5092187;28;20028;-60
2021/07/01 07:50:43;;;;;;;0.70;0.50;;;;;;;;;;5092728;28;20040;-61
2021/07/01 07:53:16;;;;;;;1.10;0.50;;;;;;;;;;5093642;28;20100;-60
2021/07/01 07:55:44;;;;;;;0.85;0.57;;;;;;;;;;5093962;28;20047;-60
2021/07/01 07:58:16;;;;;;;2.55;0.68;;;;;;;;;;5081686;28;20048;-60
2021/07/01 08:00:43;;;;;;;4.88;0.60;;;;;;;;;;5086631;28;20074;-61
2021/07/01 08:03:10;;;;;;;2.67;0.70;;;;;;;;;;5092336;28;20134;-61
2021/07/01 08:05:38;;;;;;;2.65;0.60;;;;;;;;;;5092087;28;20028;-60
2021/07/01 08:08:09;;;;;;;1.02;0.60;;;;;;;;;;5084083;28;20075;-61
2021/07/01 08:10:39;;;;;;;4.03;0.50;;;;;;;;;;5090036;28;20430;-61
2021/07/01 08:13:07;;;;;;;0.98;0.50;;;;;;;;;;5091394;28;20032;-61
2021/07/01 08:15:35;;;;;;;1.40;0.50;;;;;;;;;;5076003;28;20040;-60
2021/07/01 08:18:02;;;;;;;2.15;0.50;;;;;;;;;;5092779;28;20047;-61
2021/07/01 08:20:30;;;;;;;1.77;0.60;;;;;;;;;;5092054;28;20434;-60
2021/07/01 08:22:56;;;;;;;1.55;0.60;;;;;;;;;;5084244;28;20445;-61
2021/07/01 08:25:25;;;;;;;1.60;0.57;;;;;;;;;;5092408;28;20036;-61
2021/07/01 08:27:53;;;;;;;2.58;0.50;;;;;;;;;;5092852;28;20044;-61
2021/07/01 08:30:21;;;;;;;3.13;0.50;;;;;;;;;;5093709;28;20126;-60
2021/07/01 08:32:48;;;;;;;1.50;0.60;;;;;;;;;;5092559;28;20549;-61
2021/07/01 08:35:16;;;;;;;0.80;0.50;;;;;;;;;;5092354;28;20396;-61
2021/07/01 08:37:44;;;;;;;0.82;0.50;;;;;;;;;;5093303;28;20079;-61
2021/07/01 08:40:13;;;;;;;1.60;0.93;;;;;;;;;;5092468;28;20075;-61
2021/07/01 08:42:40;;;;;;;0.73;0.73;;;;;;;;;;5081013;28;20048;-61
2021/07/01 08:45:08;;;;;;;0.88;0.60;;;;;;;;;;5087012;28;20040;-61
2021/07/01 08:47:37;;;;;;;0.80;0.50;;;;;;;;;;5091844;28;24551;-61
2021/07/01 08:50:09;;;;;;;2.30;0.70;;;;;;;;;;5094293;28;20032;-61
2021/07/01 08:52:59;;;;;;;3.42;0.50;;;;;;;;;;5093101;28;20530;-61
2021/07/01 08:55:29;;;;;;;1.35;0.60;;;;;;;;;;5076527;28;20091;-61
2021/07/01 08:57:57;;;;;;;2.33;0.50;;;;;;;;;;5090966;28;20586;-62
2021/07/01 09:00:24;;;;;;;1.63;0.50;;;;;;;;;;5090724;28;20127;-61
2021/07/01 09:03:00;;;;;;;2.90;0.57;;;;;;;;;;5093414;28;20051;-61
2021/07/01 09:05:29;;;;;;;2.85;0.63;;;;;;;;;;5090836;28;20437;-61
2021/07/01 09:07:58;;;;;;;0.80;0.50;;;;;;;;;;5081226;28;20035;-61
2021/07/01 09:10:25;;;;;;;2.15;0.50;;;;;;;;;;5087399;28;20063;-61
2021/07/01 09:12:52;;;;;;;1.80;0.70;;;;;;;;;;5091056;28;20119;-61
2021/07/01 09:15:19;;;;;;;2.85;0.50;;;;;;;;;;5091768;28;20052;-61
2021/07/01 09:17:52;;;;;;;2.65;0.50;;;;;;;;;;5091216;28;20067;-61
2021/07/01 09:20:33;;;;;;;1.25;0.50;;;;;;;;;;5089572;28;20123;-61
2021/07/01 09:23:01;;;;;;;1.58;0.63;;;;;;;;;;5092759;28;20523;-61
2021/07/01 09:25:28;;;;;;;3.22;0.60;;;;;;;;;;5090881;28;20100;-61
2021/07/01 09:27:55;;;;;;;1.83;0.50;;;;;;;;;;5084498;28;20118;-61
2021/07/01 09:30:26;;;;;;;1.05;0.55;;;;;;;;;;5090240;28;20113;-60
2021/07/01 09:32:58;;;;;;;3.45;0.60;;;;;;;;;;5086395;28;20028;-60
2021/07/01 09:35:26;;;;;;;1.00;0.50;;;;;;;;;;5088832;28;20086;-61
2021/07/01 09:37:53;;;;;;;1.35;0.50;;;;;;;;;;5089740;28;20582;-60
2021/07/01 09:40:22;;;;;;;2.33;0.60;;;;;;;;;;5092202;28;20067;-61
2021/07/01 09:42:51;;;;;;;2.15;0.50;;;;;;;;;;5091158;28;20089;-61
2021/07/01 09:45:20;;;;;;;2.65;0.60;;;;;;;;;;5089245;28;20131;-61
2021/07/01 09:47:50;;;;;;;0.50;0.50;;;;;;;;;;5087541;28;20081;-61
2021/07/01 09:50:18;;;;;;;1.40;0.60;;;;;;;;;;5087980;28;20089;-60
2021/07/01 09:52:45;;;;;;;0.60;0.50;;;;;;;;;;5090130;28;20119;-60
2021/07/01 09:55:12;;;;;;;1.35;0.55;;;;;;;;;;5090690;28;20085;-60
2021/07/01 09:57:40;;;;;;;2.33;0.57;;;;;;;;;;5089256;28;20096;-60
2021/07/01 10:00:07;;;;;;;2.15;0.60;;;;;;;;;;5090236;28;20482;-61
2021/07/01 10:02:33;;;;;;;0.88;0.50;;;;;;;;;;5088238;28;20043;-60
2021/07/01 10:05:00;;;;;;;3.40;0.45;;;;;;;;;;5090957;28;20121;-60
2021/07/01 10:07:27;;;;;;;2.10;0.60;;;;;;;;;;5085354;28;20422;-61
2021/07/01 10:09:58;;;;;;;2.13;0.50;;;;;;;;;;5088929;28;20093;-61
2021/07/01 10:12:28;;;;;;;1.48;0.60;;;;;;;;;;5090195;28;20686;-61
2021/07/01 10:14:56;;;;;;;4.22;0.60;;;;;;;;;;5088321;28;20085;-60
2021/07/01 10:17:24;;;;;;;3.55;0.60;;;;;;;;;;5072378;28;20559;-61
2021/07/01 10:20:05;;;;;;;1.10;0.73;;;;;;;;;;5088474;28;20040;-60
2021/07/01 10:22:50;;;;;;;1.15;0.60;;;;;;;;;;5080762;28;20072;-61
2021/07/01 10:25:27;;;;;;;0.68;0.50;;;;;;;;;;5089205;28;20048;-61
2021/07/01 10:27:54;;;;;;;4.20;0.77;;;;;;;;;;5087835;28;20081;-60
2021/07/01 10:30:23;;;;;;;5.57;0.50;;;;;;;;;;5087664;28;20532;-60
2021/07/01 10:32:54;;;;;;;3.70;0.77;;;;;;;;;;5080967;28;20072;-61
2021/07/01 10:35:22;;;;;;;0.95;0.50;;;;;;;;;;5082187;28;20040;-61
2021/07/01 10:37:57;;;;;;;2.25;0.40;;;;;;;;;;5080454;28;20438;-61
2021/07/01 10:40:25;;;;;;;1.08;0.50;;;;;;;;;;5094007;28;20048;-61
2021/07/01 10:42:55;;;;;;;0.95;0.40;;;;;;;;;;5101319;28;20048;-61
2021/07/01 10:45:22;;;;;;;0.70;0.40;;;;;;;;;;5078325;28;20135;-60
2021/07/01 10:47:50;;;;;;;1.40;0.40;;;;;;;;;;5082236;28;20543;-60
2021/07/01 10:50:23;;;;;;;0.50;0.40;;;;;;;;;;5089075;28;20040;-60
2021/07/01 10:52:49;;;;;;;3.70;0.50;;;;;;;;;;5090638;28;20035;-60
2021/07/01 10:55:17;;;;;;;1.65;0.40;;;;;;;;;;5090367;28;20119;-60
2021/07/01 10:58:05;;;;;;;4.22;1.02;;;;;;;;;;5088096;28;20075;-61
2021/07/01 11:00:36;;;;;;;4.30;0.50;;;;;;;;;;5088422;28;20039;-60
2021/07/01 11:03:26;;;;;;;0.82;0.40;;;;;;;;;;5083599;28;20533;-60
2021/07/01 11:05:54;;;;;;;4.38;0.65;;;;;;;;;;5089811;28;20044;-61
2021/07/01 11:08:31;;;;;;;1.00;0.47;;;;;;;;;;5068445;28;20043;-61
2021/07/01 11:10:59;;;;;;;1.92;0.40;;;;;;;;;;5087786;28;20024;-61
2021/07/01 11:13:51;;;;;;;0.70;0.40;;;;;;;;;;5079891;28;20052;-61
2021/07/01 11:16:18;;;;;;;0.73;0.40;;;;;;;;;;5085843;28;20043;-61
2021/07/01 11:18:49;;;;;;;0.57;0.40;;;;;;;;;;5083216;28;20032;-61
2021/07/01 11:21:17;;;;;;;6.43;0.43;;;;;;;;;;5087502;28;20107;-61
2021/07/01 11:23:46;;;;;;;2.05;0.40;;;;;;;;;;5084443;28;20109;-61
2021/07/01 11:26:23;;;;;;;0.95;0.52;;;;;;;;;;5088222;28;20576;-61
2021/07/01 11:28:50;;;;;;;0.40;0.40;;;;;;;;;;5087653;28;20036;-61
2021/07/01 11:31:17;;;;;;;3.30;0.40;;;;;;;;;;5087208;28;20131;-61
2021/07/01 11:33:51;;;;;;;0.50;0.30;;;;;;;;;;5082443;28;20478;-61
2021/07/01 11:36:19;;;;;;;0.38;0.30;;;;;;;;;;5089980;28;20071;-61
2021/07/01 11:38:47;;;;;;;3.78;1.10;;;;;;;;;;5084447;28;20063;-58
2021/07/01 11:41:14;;;;;;;0.40;0.30;;;;;;;;;;5088726;28;20181;-56
2021/07/01 11:43:41;;;;;;;0.65;0.40;;;;;;;;;;5089183;28;20696;-57
2021/07/01 11:46:08;;;;;;;2.00;0.40;;;;;;;;;;5090811;28;20502;-59
2021/07/01 11:48:36;;;;;;;1.42;0.40;;;;;;;;;;5084614;28;20484;-58
2021/07/01 11:51:04;;;;;;;0.47;0.32;;;;;;;;;;5082683;28;20127;-58
2021/07/01 11:53:31;;;;;;;1.05;0.35;;;;;;;;;;5089199;28;20579;-57
2021/07/01 11:55:58;;;;;;;1.02;0.30;;;;;;;;;;5087271;28;20072;-58
2021/07/01 11:58:25;;;;;;;1.05;0.40;;;;;;;;;;5089711;28;20098;-58
2021/07/01 12:00:53;;;;;;;0.70;0.30;;;;;;;;;;5088037;28;20047;-58
2021/07/01 12:03:20;;;;;;;0.50;0.30;;;;;;;;;;5082894;28;20435;-58
2021/07/01 12:05:49;;;;;;;0.40;0.35;;;;;;;;;;5084214;28;20430;-57
2021/07/01 12:08:16;;;;;;;2.08;0.30;;;;;;;;;;5089315;28;20414;-59
2021/07/01 12:10:44;;;;;;;0.43;0.30;;;;;;;;;;5088812;28;20090;-59
2021/07/01 12:13:40;;;;;;;1.95;0.30;;;;;;;;;;5085566;28;20037;-57
2021/07/01 12:16:08;;;;;;;1.70;0.30;;;;;;;;;;5001415;28;20100;-57
2021/07/01 12:18:44;;;;;;;0.90;0.30;;;;;;;;;;5029925;28;20037;-58
2021/07/01 12:21:12;;;;;;;1.33;0.30;;;;;;;;;;5029510;28;20099;-58
2021/07/01 12:23:45;;;;;;;1.10;0.40;;;;;;;;;;5028874;28;20121;-58
2021/07/01 12:26:31;;;;;;;0.98;0.35;;;;;;;;;;5029784;28;20045;-58
2021/07/01 12:28:58;;;;;;;0.30;0.28;;;;;;;;;;5029794;28;20252;-59
2021/07/01 12:31:25;;;;;;;1.55;0.30;;;;;;;;;;5028702;28;20037;-58
2021/07/01 12:33:55;;;;;;;1.60;0.30;;;;;;;;;;5031427;28;20053;-58
2021/07/01 12:36:29;;;;;;;0.90;0.30;;;;;;;;;;5032252;28;20183;-59
2021/07/01 12:41:37;;;;;;;1.00;0.20;;;;;;;;;;5029670;28;20111;-58
2021/07/01 12:44:11;;;;;;;1.85;0.28;;;;;;;;;;5027587;28;20049;-58
2021/07/01 12:46:41;;;;;;;1.17;0.85;;;;;;;;;;5030391;28;20088;-44
2021/07/01 12:49:28;;;;;;;2.55;0.30;;;;;;;;;;5029374;28;20100;-43
2021/07/01 12:51:57;;;;;;;1.02;0.30;;;;;;;;;;5031611;28;20049;-43
2021/07/01 12:54:27;;;;;;;0.50;0.50;;;;;;;;;;5092745;28;20526;-42
2021/07/01 12:56:54;;;;;;;1.20;0.20;;;;;;;;;;5092560;28;20110;-43
2021/07/01 12:59:21;;;;;;;0.32;0.30;;;;;;;;;;5074614;28;20083;-43
2021/07/01 13:01:48;;;;;;;0.30;0.30;;;;;;;;;;5093635;28;20043;-42
2021/07/01 13:04:25;;;;;;;0.40;0.30;;;;;;;;;;5089272;28;20119;-42
2021/07/01 13:06:52;;;;;;;0.52;0.30;;;;;;;;;;5093126;28;20036;-43
2021/07/01 13:09:29;;;;;;;1.15;0.30;;;;;;;;;;5090817;28;20089;-42
2021/07/01 13:11:56;;;;;;;0.45;0.30;;;;;;;;;;5091069;28;20679;-45
2021/07/01 13:14:24;;;;;;;0.55;0.55;;;;;;;;;;5082480;28;20346;-42
2021/07/01 13:17:00;;;;;;;1.67;0.30;;;;;;;;;;5084542;28;20059;-42
2021/07/01 13:19:27;;;;;;;0.40;0.20;;;;;;;;;;5091311;28;20428;-46
2021/07/01 13:21:55;;;;;;;1.50;0.20;;;;;;;;;;5089727;28;20068;-43
2021/07/01 13:24:22;;;;;;;0.30;0.30;;;;;;;;;;5078091;28;20032;-43
2021/07/01 13:26:52;;;;;;;0.50;0.30;;;;;;;;;;5078405;28;20068;-43
2021/07/01 13:29:51;;;;;;;0.45;0.30;;;;;;;;;;5086665;28;20436;-42
2021/07/01 13:32:18;;;;;;;1.10;0.30;;;;;;;;;;4997082;28;20124;-44
2021/07/01 13:34:45;;;;;;;0.60;0.30;;;;;;;;;;5002966;28;20115;-43
2021/07/01 13:37:20;;;;;;;0.85;0.40;;;;;;;;;;5010610;28;20038;-42
2021/07/01 13:39:47;;;;;;;2.20;0.30;;;;;;;;;;4987911;28;20046;-44
2021/07/01 13:42:32;;;;;;;2.30;0.73;;;;;;;;;;5011262;28;20433;-42
2021/07/01 13:45:01;;;;;;;0.40;0.30;;;;;;;;;;5010391;28;20698;-43
2021/07/01 13:47:28;;;;;;;1.75;0.30;;;;;;;;;;5010278;28;20473;-43
2021/07/01 13:49:55;;;;;;;0.40;0.40;;;;;;;;;;5010182;28;20510;-45
2021/07/01 13:52:21;;;;;;;0.70;0.35;;;;;;;;;;5008801;28;20581;-41
2021/07/01 13:54:48;;;;;;;2.25;0.30;;;;;;;;;;5009384;28;20513;-43
2021/07/01 13:57:25;;;;;;;1.05;0.25;;;;;;;;;;5010380;28;20045;-42
2021/07/01 13:59:56;;;;;;;0.40;0.30;;;;;;;;;;4992150;28;20210;-44
2021/07/01 14:02:23;;;;;;;1.48;0.22;;;;;;;;;;5010210;28;20136;-44
2021/07/01 14:04:50;;;;;;;0.68;0.30;;;;;;;;;;5010303;28;20068;-44
2021/07/01 14:07:27;;;;;;;2.55;0.28;;;;;;;;;;5022387;28;20076;-43
2021/07/01 14:10:24;;;;;;;1.83;0.30;;;;;;;;;;5083209;28;20035;-42
2021/07/01 14:12:50;;;;;;;4.03;0.30;;;;;;;;;;5074212;28;20055;-44
2021/07/01 14:15:17;;;;;;;1.65;0.20;;;;;;;;;;5078689;28;20234;-44
2021/07/01 14:17:44;;;;;;;1.00;0.25;;;;;;;;;;5086226;28;20035;-44
2021/07/01 14:20:11;;;;;;;1.42;0.20;;;;;;;;;;5088605;28;20097;-43
2021/07/01 14:22:39;;;;;;;0.52;0.20;;;;;;;;;;5085224;28;20067;-43
2021/07/01 14:25:19;;;;;;;1.13;0.20;;;;;;;;;;5081415;28;20038;-42
2021/07/01 14:27:46;;;;;;;0.32;0.20;;;;;;;;;;5090385;28;20119;-42
2021/07/01 14:30:32;;;;;;;0.52;0.20;;;;;;;;;;5090644;28;20044;-43
2021/07/01 14:32:58;;;;;;;0.20;0.20;;;;;;;;;;5089163;28;20119;-43
2021/07/01 14:35:28;;;;;;;0.40;0.20;;;;;;;;;;5092257;28;20113;-42
2021/07/01 14:38:02;;;;;;;0.20;0.20;;;;;;;;;;5088063;28;20044;-43
2021/07/01 14:40:29;;;;;;;0.30;0.20;;;;;;;;;;5093237;28;20044;-41
2021/07/01 14:43:03;;;;;;;0.20;0.20;;;;;;;;;;5084463;28;20487;-43
2021/07/01 14:45:30;;;;;;;0.20;0.20;;;;;;;;;;5089184;28;20162;-42
2021/07/01 14:47:58;;;;;;;0.30;0.30;;;;;;;;;;5089931;28;20043;-43
2021/07/01 14:50:28;;;;;;;1.15;0.20;;;;;;;;;;5088694;28;20040;-44
2021/07/01 14:52:55;;;;;;;0.32;0.20;;;;;;;;;;5089411;28;20044;-45
2021/07/01 14:55:22;;;;;;;0.40;0.30;;;;;;;;;;5087570;28;20068;-42